sensor_id;sensor_type;location;lat;lon;timestamp;pressure;altitude;pressure_sealevel;temperature
9119;BMP180;4594;50.994;7.126;2023-10-08T00:00:48;101379.00;;;22.00
9119;BMP180;4594;50.994;7.126;2023-10-08T00:03:21;101371.00;;;21.90
9119;BMP180;4594;50.994;7.126;2023-10-08T00:05:47;101394.00;;;21.90
9119;BMP180;4594;50.994;7.126;2023-10-08T00:08:15;101362.00;;;21.90
9119;BMP180;4594;50.994;7.126;2023-10-08T00:10:43;101392.00;;;22.00
9119;BMP180;4594;50.994;7.126;2023-10-08T00:13:14;101387.00;;;22.00
9119;BMP180;4594;50.994;7.126;2023-10-08T00:15:44;101375.00;;;22.00
9119;BMP180;4594;50.994;7.126;2023-10-08T00:18:21;101388.00;;;22.00
9119;BMP180;4594;50.994;7.126;2023-10-08T00:20:51;101391.00;;;22.00
9119;BMP180;4594;50.994;7.126;2023-10-08T00:23:30;101393.00;;;22.00
9119;BMP180;4594;50.994;7.126;2023-10-08T00:25:56;101379.00;;;22.00
9119;BMP180;4594;50.994;7.126;2023-10-08T00:28:23;101394.00;;;22.00
9119;BMP180;4594;50.994;7.126;2023-10-08T00:30:50;101385.00;;;22.00
9119;BMP180;4594;50.994;7.126;2023-10-08T00:33:19;101387.00;;;22.00
9119;BMP180;4594;50.994;7.126;2023-10-08T00:35:44;101385.00;;;22.00
9119;BMP180;4594;50.994;7.126;2023-10-08T00:38:11;101394.00;;;22.00
9119;BMP180;4594;50.994;7.126;2023-10-08T00:40:42;101404.00;;;22.00
9119;BMP180;4594;50.994;7.126;2023-10-08T00:43:34;101393.00;;;21.90
9119;BMP180;4594;50.994;7.126;2023-10-08T00:46:02;101384.00;;;21.90
9119;BMP180;4594;50.994;7.126;2023-10-08T00:48:42;101385.00;;;21.90
9119;BMP180;4594;50.994;7.126;2023-10-08T00:51:10;101388.00;;;21.90
9119;BMP180;4594;50.994;7.126;2023-10-08T00:54:08;101379.00;;;21.90
9119;BMP180;4594;50.994;7.126;2023-10-08T00:56:36;101384.00;;;21.90
9119;BMP180;4594;50.994;7.126;2023-10-08T00:59:21;101369.00;;;21.90
9119;BMP180;4594;50.994;7.126;2023-10-08T01:01:49;101365.00;;;21.90
9119;BMP180;4594;50.994;7.126;2023-10-08T01:04:25;101356.00;;;21.90
9119;BMP180;4594;50.994;7.126;2023-10-08T01:06:57;101373.00;;;21.80
9119;BMP180;4594;50.994;7.126;2023-10-08T01:09:39;101384.00;;;21.90
9119;BMP180;4594;50.994;7.126;2023-10-08T01:12:15;101379.00;;;21.90
9119;BMP180;4594;50.994;7.126;2023-10-08T01:14:43;101388.00;;;21.90
9119;BMP180;4594;50.994;7.126;2023-10-08T01:17:10;101369.00;;;21.90
9119;BMP180;4594;50.994;7.126;2023-10-08T01:19:48;101384.00;;;21.90
9119;BMP180;4594;50.994;7.126;2023-10-08T01:22:17;101394.00;;;21.80
9119;BMP180;4594;50.994;7.126;2023-10-08T01:24:48;101376.00;;;21.80
9119;BMP180;4594;50.994;7.126;2023-10-08T01:27:23;101372.00;;;21.80
9119;BMP180;4594;50.994;7.126;2023-10-08T01:29:51;101368.00;;;21.70
9119;BMP180;4594;50.994;7.126;2023-10-08T01:32:19;101372.00;;;21.70
9119;BMP180;4594;50.994;7.126;2023-10-08T01:34:45;101355.00;;;21.70
9119;BMP180;4594;50.994;7.126;2023-10-08T01:37:18;101357.00;;;21.60
9119;BMP180;4594;50.994;7.126;2023-10-08T01:39:45;101359.00;;;21.60
9119;BMP180;4594;50.994;7.126;2023-10-08T01:42:12;101367.00;;;21.50
9119;BMP180;4594;50.994;7.126;2023-10-08T01:44:59;101369.00;;;21.50
9119;BMP180;4594;50.994;7.126;2023-10-08T01:47:24;101382.00;;;21.50
9119;BMP180;4594;50.994;7.126;2023-10-08T01:49:51;101396.00;;;21.40
9119;BMP180;4594;50.994;7.126;2023-10-08T01:52:23;101392.00;;;21.30
9119;BMP180;4594;50.994;7.126;2023-10-08T01:54:50;101393.00;;;21.20
9119;BMP180;4594;50.994;7.126;2023-10-08T01:57:19;101393.00;;;21.30
9119;BMP180;4594;50.994;7.126;2023-10-08T01:59:44;101397.00;;;21.20
9119;BMP180;4594;50.994;7.126;2023-10-08T02:02:11;101393.00;;;21.20
9119;BMP180;4594;50.994;7.126;2023-10-08T02:04:38;101403.00;;;21.10
9119;BMP180;4594;50.994;7.126;2023-10-08T02:07:04;101376.00;;;21.10
9119;BMP180;4594;50.994;7.126;2023-10-08T02:09:34;101381.00;;;21.00
9119;BMP180;4594;50.994;7.126;2023-10-08T02:12:00;101386.00;;;21.00
9119;BMP180;4594;50.994;7.126;2023-10-08T02:14:26;101395.00;;;21.00
9119;BMP180;4594;50.994;7.126;2023-10-08T02:16:55;101389.00;;;20.90
9119;BMP180;4594;50.994;7.126;2023-10-08T02:19:22;101374.00;;;20.90
9119;BMP180;4594;50.994;7.126;2023-10-08T02:21:56;101393.00;;;20.90
9119;BMP180;4594;50.994;7.126;2023-10-08T02:24:24;101388.00;;;20.80
9119;BMP180;4594;50.994;7.126;2023-10-08T02:26:54;101385.00;;;20.80
9119;BMP180;4594;50.994;7.126;2023-10-08T02:29:25;101402.00;;;20.80
9119;BMP180;4594;50.994;7.126;2023-10-08T02:31:50;101401.00;;;20.80
9119;BMP180;4594;50.994;7.126;2023-10-08T02:34:16;101383.00;;;20.80
9119;BMP180;4594;50.994;7.126;2023-10-08T02:36:42;101395.00;;;20.80
9119;BMP180;4594;50.994;7.126;2023-10-08T02:39:08;101380.00;;;20.80
9119;BMP180;4594;50.994;7.126;2023-10-08T02:41:48;101404.00;;;20.80
9119;BMP180;4594;50.994;7.126;2023-10-08T02:44:15;101401.00;;;20.80
9119;BMP180;4594;50.994;7.126;2023-10-08T02:46:47;101389.00;;;20.80
9119;BMP180;4594;50.994;7.126;2023-10-08T02:49:20;101413.00;;;20.80
9119;BMP180;4594;50.994;7.126;2023-10-08T02:51:53;101406.00;;;20.90
9119;BMP180;4594;50.994;7.126;2023-10-08T02:54:21;101407.00;;;20.90
9119;BMP180;4594;50.994;7.126;2023-10-08T02:56:53;101382.00;;;20.90
9119;BMP180;4594;50.994;7.126;2023-10-08T02:59:23;101387.00;;;21.00
9119;BMP180;4594;50.994;7.126;2023-10-08T03:01:50;101395.00;;;21.00
9119;BMP180;4594;50.994;7.126;2023-10-08T03:04:15;101387.00;;;21.10
9119;BMP180;4594;50.994;7.126;2023-10-08T03:06:49;101389.00;;;21.10
9119;BMP180;4594;50.994;7.126;2023-10-08T03:09:17;101380.00;;;21.10
9119;BMP180;4594;50.994;7.126;2023-10-08T03:11:47;101383.00;;;21.10
9119;BMP180;4594;50.994;7.126;2023-10-08T03:14:15;101402.00;;;21.10
9119;BMP180;4594;50.994;7.126;2023-10-08T03:16:52;101374.00;;;21.20
9119;BMP180;4594;50.994;7.126;2023-10-08T03:19:21;101399.00;;;21.20
9119;BMP180;4594;50.994;7.126;2023-10-08T03:21:48;101411.00;;;21.20
9119;BMP180;4594;50.994;7.126;2023-10-08T03:24:18;101402.00;;;21.20
9119;BMP180;4594;50.994;7.126;2023-10-08T03:27:04;101409.00;;;21.30
9119;BMP180;4594;50.994;7.126;2023-10-08T03:29:36;101406.00;;;21.30
9119;BMP180;4594;50.994;7.126;2023-10-08T03:32:09;101415.00;;;21.30
9119;BMP180;4594;50.994;7.126;2023-10-08T03:34:43;101403.00;;;21.40
9119;BMP180;4594;50.994;7.126;2023-10-08T03:37:13;101426.00;;;21.40
9119;BMP180;4594;50.994;7.126;2023-10-08T03:39:49;101434.00;;;21.40
9119;BMP180;4594;50.994;7.126;2023-10-08T03:42:24;101429.00;;;21.50
9119;BMP180;4594;50.994;7.126;2023-10-08T03:44:51;101440.00;;;21.50
9119;BMP180;4594;50.994;7.126;2023-10-08T03:47:24;101415.00;;;21.50
9119;BMP180;4594;50.994;7.126;2023-10-08T03:49:53;101421.00;;;21.50
9119;BMP180;4594;50.994;7.126;2023-10-08T03:52:20;101385.00;;;21.60
9119;BMP180;4594;50.994;7.126;2023-10-08T03:54:51;101398.00;;;21.60
9119;BMP180;4594;50.994;7.126;2023-10-08T03:57:40;101414.00;;;21.60
9119;BMP180;4594;50.994;7.126;2023-10-08T04:00:11;101423.00;;;21.60
9119;BMP180;4594;50.994;7.126;2023-10-08T04:02:47;101444.00;;;21.50
9119;BMP180;4594;50.994;7.126;2023-10-08T04:05:22;101445.00;;;21.50
9119;BMP180;4594;50.994;7.126;2023-10-08T04:08:06;101453.00;;;21.50
9119;BMP180;4594;50.994;7.126;2023-10-08T04:10:43;101422.00;;;21.50
9119;BMP180;4594;50.994;7.126;2023-10-08T04:13:09;101376.00;;;21.50
9119;BMP180;4594;50.994;7.126;2023-10-08T04:15:36;101400.00;;;21.50
9119;BMP180;4594;50.994;7.126;2023-10-08T04:18:10;101402.00;;;21.50
9119;BMP180;4594;50.994;7.126;2023-10-08T04:20:36;101410.00;;;21.50
9119;BMP180;4594;50.994;7.126;2023-10-08T04:23:24;101398.00;;;21.50
9119;BMP180;4594;50.994;7.126;2023-10-08T04:25:50;101408.00;;;21.50
9119;BMP180;4594;50.994;7.126;2023-10-08T04:28:21;101404.00;;;21.50
9119;BMP180;4594;50.994;7.126;2023-10-08T04:30:47;101411.00;;;21.50
9119;BMP180;4594;50.994;7.126;2023-10-08T04:33:13;101425.00;;;21.50
9119;BMP180;4594;50.994;7.126;2023-10-08T04:35:45;101436.00;;;21.50
9119;BMP180;4594;50.994;7.126;2023-10-08T04:38:15;101400.00;;;21.40
9119;BMP180;4594;50.994;7.126;2023-10-08T04:40:44;101384.00;;;21.40
9119;BMP180;4594;50.994;7.126;2023-10-08T04:43:25;101402.00;;;21.40
9119;BMP180;4594;50.994;7.126;2023-10-08T04:46:02;101410.00;;;21.40
9119;BMP180;4594;50.994;7.126;2023-10-08T04:48:46;101422.00;;;21.30
9119;BMP180;4594;50.994;7.126;2023-10-08T04:51:12;101427.00;;;21.30
9119;BMP180;4594;50.994;7.126;2023-10-08T04:53:39;101439.00;;;21.30
9119;BMP180;4594;50.994;7.126;2023-10-08T04:56:12;101445.00;;;21.20
9119;BMP180;4594;50.994;7.126;2023-10-08T04:58:47;101440.00;;;21.20
9119;BMP180;4594;50.994;7.126;2023-10-08T05:01:18;101448.00;;;21.20
9119;BMP180;4594;50.994;7.126;2023-10-08T05:03:48;101466.00;;;21.20
9119;BMP180;4594;50.994;7.126;2023-10-08T05:06:40;101442.00;;;21.10
9119;BMP180;4594;50.994;7.126;2023-10-08T05:09:16;101459.00;;;21.10
9119;BMP180;4594;50.994;7.126;2023-10-08T05:11:54;101445.00;;;21.10
9119;BMP180;4594;50.994;7.126;2023-10-08T05:14:22;101444.00;;;21.10
9119;BMP180;4594;50.994;7.126;2023-10-08T05:17:03;101452.00;;;21.10
9119;BMP180;4594;50.994;7.126;2023-10-08T05:19:39;101448.00;;;21.10
9119;BMP180;4594;50.994;7.126;2023-10-08T05:22:05;101443.00;;;21.10
9119;BMP180;4594;50.994;7.126;2023-10-08T05:24:49;101434.00;;;21.10
9119;BMP180;4594;50.994;7.126;2023-10-08T05:27:53;101422.00;;;21.00
9119;BMP180;4594;50.994;7.126;2023-10-08T05:30:30;101462.00;;;21.00
9119;BMP180;4594;50.994;7.126;2023-10-08T05:33:08;101455.00;;;21.00
9119;BMP180;4594;50.994;7.126;2023-10-08T05:35:41;101455.00;;;20.90
9119;BMP180;4594;50.994;7.126;2023-10-08T05:38:13;101457.00;;;21.00
9119;BMP180;4594;50.994;7.126;2023-10-08T05:40:43;101461.00;;;20.90
9119;BMP180;4594;50.994;7.126;2023-10-08T05:43:27;101453.00;;;20.90
9119;BMP180;4594;50.994;7.126;2023-10-08T05:46:10;101483.00;;;20.80
9119;BMP180;4594;50.994;7.126;2023-10-08T05:48:54;101496.00;;;20.80
9119;BMP180;4594;50.994;7.126;2023-10-08T05:51:33;101486.00;;;20.80
9119;BMP180;4594;50.994;7.126;2023-10-08T05:54:20;101498.00;;;20.80
9119;BMP180;4594;50.994;7.126;2023-10-08T05:57:02;101511.00;;;20.80
9119;BMP180;4594;50.994;7.126;2023-10-08T05:59:44;101508.00;;;20.90
9119;BMP180;4594;50.994;7.126;2023-10-08T06:02:26;101510.00;;;20.90
9119;BMP180;4594;50.994;7.126;2023-10-08T06:05:13;101504.00;;;20.90
9119;BMP180;4594;50.994;7.126;2023-10-08T06:07:46;101505.00;;;21.00
9119;BMP180;4594;50.994;7.126;2023-10-08T06:10:31;101520.00;;;21.10
9119;BMP180;4594;50.994;7.126;2023-10-08T06:13:11;101509.00;;;21.10
9119;BMP180;4594;50.994;7.126;2023-10-08T06:15:57;101509.00;;;21.20
9119;BMP180;4594;50.994;7.126;2023-10-08T06:18:26;101494.00;;;21.20
9119;BMP180;4594;50.994;7.126;2023-10-08T06:20:53;101489.00;;;21.30
9119;BMP180;4594;50.994;7.126;2023-10-08T06:23:25;101493.00;;;21.40
9119;BMP180;4594;50.994;7.126;2023-10-08T06:25:54;101487.00;;;21.40
9119;BMP180;4594;50.994;7.126;2023-10-08T06:28:25;101459.00;;;21.50
9119;BMP180;4594;50.994;7.126;2023-10-08T06:30:55;101482.00;;;21.50
9119;BMP180;4594;50.994;7.126;2023-10-08T06:33:24;101469.00;;;21.60
9119;BMP180;4594;50.994;7.126;2023-10-08T06:35:51;101478.00;;;21.60
9119;BMP180;4594;50.994;7.126;2023-10-08T06:38:36;101470.00;;;21.70
9119;BMP180;4594;50.994;7.126;2023-10-08T06:41:05;101477.00;;;21.70
9119;BMP180;4594;50.994;7.126;2023-10-08T06:43:53;101478.00;;;21.80
9119;BMP180;4594;50.994;7.126;2023-10-08T06:46:29;101505.00;;;21.90
9119;BMP180;4594;50.994;7.126;2023-10-08T06:48:59;101494.00;;;21.90
9119;BMP180;4594;50.994;7.126;2023-10-08T06:51:25;101488.00;;;22.00
9119;BMP180;4594;50.994;7.126;2023-10-08T06:53:52;101501.00;;;22.00
9119;BMP180;4594;50.994;7.126;2023-10-08T06:56:19;101534.00;;;22.10
9119;BMP180;4594;50.994;7.126;2023-10-08T06:58:46;101539.00;;;22.20
9119;BMP180;4594;50.994;7.126;2023-10-08T07:01:22;101512.00;;;22.20
9119;BMP180;4594;50.994;7.126;2023-10-08T07:03:48;101518.00;;;22.30
9119;BMP180;4594;50.994;7.126;2023-10-08T07:06:18;101509.00;;;22.30
9119;BMP180;4594;50.994;7.126;2023-10-08T07:08:58;101503.00;;;22.40
9119;BMP180;4594;50.994;7.126;2023-10-08T07:11:26;101498.00;;;22.40
9119;BMP180;4594;50.994;7.126;2023-10-08T07:13:52;101494.00;;;22.50
9119;BMP180;4594;50.994;7.126;2023-10-08T07:16:19;101515.00;;;22.50
9119;BMP180;4594;50.994;7.126;2023-10-08T07:18:47;101514.00;;;22.60
9119;BMP180;4594;50.994;7.126;2023-10-08T07:21:19;101512.00;;;22.70
9119;BMP180;4594;50.994;7.126;2023-10-08T07:23:56;101508.00;;;22.70
9119;BMP180;4594;50.994;7.126;2023-10-08T07:26:24;101509.00;;;22.80
9119;BMP180;4594;50.994;7.126;2023-10-08T07:28:50;101516.00;;;22.80
9119;BMP180;4594;50.994;7.126;2023-10-08T07:31:24;101514.00;;;22.90
9119;BMP180;4594;50.994;7.126;2023-10-08T07:33:53;101501.00;;;22.90
9119;BMP180;4594;50.994;7.126;2023-10-08T07:36:23;101515.00;;;23.00
9119;BMP180;4594;50.994;7.126;2023-10-08T07:38:51;101526.00;;;23.00
9119;BMP180;4594;50.994;7.126;2023-10-08T07:41:17;101525.00;;;23.20
9119;BMP180;4594;50.994;7.126;2023-10-08T07:43:46;101532.00;;;23.20
9119;BMP180;4594;50.994;7.126;2023-10-08T07:46:22;101525.00;;;23.30
9119;BMP180;4594;50.994;7.126;2023-10-08T07:48:47;101551.00;;;23.40
9119;BMP180;4594;50.994;7.126;2023-10-08T07:51:17;101544.00;;;23.50
9119;BMP180;4594;50.994;7.126;2023-10-08T07:53:48;101568.00;;;23.60
9119;BMP180;4594;50.994;7.126;2023-10-08T07:56:14;101542.00;;;23.60
9119;BMP180;4594;50.994;7.126;2023-10-08T07:58:40;101558.00;;;23.70
9119;BMP180;4594;50.994;7.126;2023-10-08T08:01:07;101566.00;;;23.80
9119;BMP180;4594;50.994;7.126;2023-10-08T08:03:36;101569.00;;;23.80
9119;BMP180;4594;50.994;7.126;2023-10-08T08:06:08;101546.00;;;23.90
9119;BMP180;4594;50.994;7.126;2023-10-08T08:08:39;101570.00;;;24.00
9119;BMP180;4594;50.994;7.126;2023-10-08T08:11:06;101573.00;;;24.00
9119;BMP180;4594;50.994;7.126;2023-10-08T08:13:35;101560.00;;;24.00
9119;BMP180;4594;50.994;7.126;2023-10-08T08:16:01;101566.00;;;24.00
9119;BMP180;4594;50.994;7.126;2023-10-08T08:18:46;101559.00;;;24.10
9119;BMP180;4594;50.994;7.126;2023-10-08T08:21:13;101550.00;;;24.20
9119;BMP180;4594;50.994;7.126;2023-10-08T08:23:43;101556.00;;;24.30
9119;BMP180;4594;50.994;7.126;2023-10-08T08:26:20;101575.00;;;24.40
9119;BMP180;4594;50.994;7.126;2023-10-08T08:28:57;101563.00;;;24.50
9119;BMP180;4594;50.994;7.126;2023-10-08T08:31:26;101574.00;;;24.50
9119;BMP180;4594;50.994;7.126;2023-10-08T08:33:53;101555.00;;;24.60
9119;BMP180;4594;50.994;7.126;2023-10-08T08:36:23;101571.00;;;24.60
9119;BMP180;4594;50.994;7.126;2023-10-08T08:38:50;101567.00;;;24.70
9119;BMP180;4594;50.994;7.126;2023-10-08T08:41:16;101572.00;;;24.70
9119;BMP180;4594;50.994;7.126;2023-10-08T08:43:48;101573.00;;;24.80
9119;BMP180;4594;50.994;7.126;2023-10-08T08:46:14;101575.00;;;24.80
9119;BMP180;4594;50.994;7.126;2023-10-08T08:48:42;101570.00;;;24.90
9119;BMP180;4594;50.994;7.126;2023-10-08T08:51:10;101566.00;;;25.00
9119;BMP180;4594;50.994;7.126;2023-10-08T08:53:37;101581.00;;;25.00
9119;BMP180;4594;50.994;7.126;2023-10-08T08:56:06;101570.00;;;25.10
9119;BMP180;4594;50.994;7.126;2023-10-08T08:58:36;101584.00;;;25.10
9119;BMP180;4594;50.994;7.126;2023-10-08T09:01:06;101595.00;;;25.20
9119;BMP180;4594;50.994;7.126;2023-10-08T09:03:35;101584.00;;;25.30
9119;BMP180;4594;50.994;7.126;2023-10-08T09:06:02;101590.00;;;25.30
9119;BMP180;4594;50.994;7.126;2023-10-08T09:08:37;101587.00;;;25.30
9119;BMP180;4594;50.994;7.126;2023-10-08T09:11:03;101574.00;;;25.40
9119;BMP180;4594;50.994;7.126;2023-10-08T09:13:35;101582.00;;;25.40
9119;BMP180;4594;50.994;7.126;2023-10-08T09:16:12;101582.00;;;25.50
9119;BMP180;4594;50.994;7.126;2023-10-08T09:18:41;101572.00;;;25.60
9119;BMP180;4594;50.994;7.126;2023-10-08T09:21:09;101576.00;;;25.70
9119;BMP180;4594;50.994;7.126;2023-10-08T09:23:40;101592.00;;;25.70
9119;BMP180;4594;50.994;7.126;2023-10-08T09:26:10;101564.00;;;25.80
9119;BMP180;4594;50.994;7.126;2023-10-08T09:28:37;101568.00;;;25.90
9119;BMP180;4594;50.994;7.126;2023-10-08T09:31:05;101583.00;;;25.90
9119;BMP180;4594;50.994;7.126;2023-10-08T09:33:32;101595.00;;;26.00
9119;BMP180;4594;50.994;7.126;2023-10-08T09:35:59;101605.00;;;26.10
9119;BMP180;4594;50.994;7.126;2023-10-08T09:38:28;101603.00;;;26.10
9119;BMP180;4594;50.994;7.126;2023-10-08T09:40:56;101600.00;;;26.10
9119;BMP180;4594;50.994;7.126;2023-10-08T09:43:24;101592.00;;;26.20
9119;BMP180;4594;50.994;7.126;2023-10-08T09:45:59;101591.00;;;26.30
9119;BMP180;4594;50.994;7.126;2023-10-08T09:48:26;101614.00;;;26.40
9119;BMP180;4594;50.994;7.126;2023-10-08T09:50:59;101607.00;;;26.50
9119;BMP180;4594;50.994;7.126;2023-10-08T09:53:40;101628.00;;;26.60
9119;BMP180;4594;50.994;7.126;2023-10-08T09:56:14;101625.00;;;26.70
9119;BMP180;4594;50.994;7.126;2023-10-08T09:58:44;101641.00;;;26.70
9119;BMP180;4594;50.994;7.126;2023-10-08T10:01:11;101621.00;;;26.80
9119;BMP180;4594;50.994;7.126;2023-10-08T10:03:38;101634.00;;;26.80
9119;BMP180;4594;50.994;7.126;2023-10-08T10:06:11;101624.00;;;26.90
9119;BMP180;4594;50.994;7.126;2023-10-08T10:08:37;101641.00;;;27.00
9119;BMP180;4594;50.994;7.126;2023-10-08T10:11:03;101649.00;;;27.00
9119;BMP180;4594;50.994;7.126;2023-10-08T10:13:42;101646.00;;;27.00
9119;BMP180;4594;50.994;7.126;2023-10-08T10:16:11;101642.00;;;27.10
9119;BMP180;4594;50.994;7.126;2023-10-08T10:18:39;101641.00;;;27.10
9119;BMP180;4594;50.994;7.126;2023-10-08T10:23:43;101639.00;;;27.20
9119;BMP180;4594;50.994;7.126;2023-10-08T10:26:25;101630.00;;;27.30
9119;BMP180;4594;50.994;7.126;2023-10-08T10:31:52;101644.00;;;27.40
9119;BMP180;4594;50.994;7.126;2023-10-08T10:34:28;101642.00;;;27.40
9119;BMP180;4594;50.994;7.126;2023-10-08T10:36:58;101641.00;;;27.50
9119;BMP180;4594;50.994;7.126;2023-10-08T10:39:26;101645.00;;;27.60
9119;BMP180;4594;50.994;7.126;2023-10-08T10:41:55;101639.00;;;27.60
9119;BMP180;4594;50.994;7.126;2023-10-08T10:44:24;101645.00;;;27.70
9119;BMP180;4594;50.994;7.126;2023-10-08T10:46:50;101642.00;;;27.80
9119;BMP180;4594;50.994;7.126;2023-10-08T10:49:34;101633.00;;;27.80
9119;BMP180;4594;50.994;7.126;2023-10-08T10:52:02;101630.00;;;27.90
9119;BMP180;4594;50.994;7.126;2023-10-08T10:54:31;101625.00;;;28.00
9119;BMP180;4594;50.994;7.126;2023-10-08T10:57:02;101608.00;;;28.10
9119;BMP180;4594;50.994;7.126;2023-10-08T10:59:33;101628.00;;;28.20
9119;BMP180;4594;50.994;7.126;2023-10-08T11:02:06;101630.00;;;28.20
9119;BMP180;4594;50.994;7.126;2023-10-08T11:04:47;101629.00;;;28.30
9119;BMP180;4594;50.994;7.126;2023-10-08T11:07:21;101615.00;;;28.40
9119;BMP180;4594;50.994;7.126;2023-10-08T11:09:49;101631.00;;;28.40
9119;BMP180;4594;50.994;7.126;2023-10-08T11:12:18;101620.00;;;28.40
9119;BMP180;4594;50.994;7.126;2023-10-08T11:14:49;101624.00;;;28.50
9119;BMP180;4594;50.994;7.126;2023-10-08T11:17:23;101620.00;;;28.60
9119;BMP180;4594;50.994;7.126;2023-10-08T11:19:50;101622.00;;;28.70
9119;BMP180;4594;50.994;7.126;2023-10-08T11:22:17;101636.00;;;28.80
9119;BMP180;4594;50.994;7.126;2023-10-08T11:24:47;101633.00;;;28.90
9119;BMP180;4594;50.994;7.126;2023-10-08T11:27:16;101631.00;;;28.90
9119;BMP180;4594;50.994;7.126;2023-10-08T11:29:49;101635.00;;;28.90
9119;BMP180;4594;50.994;7.126;2023-10-08T11:32:27;101638.00;;;28.90
9119;BMP180;4594;50.994;7.126;2023-10-08T11:34:59;101635.00;;;28.90
9119;BMP180;4594;50.994;7.126;2023-10-08T11:37:30;101634.00;;;28.90
9119;BMP180;4594;50.994;7.126;2023-10-08T11:39:59;101623.00;;;29.00
9119;BMP180;4594;50.994;7.126;2023-10-08T11:42:34;101629.00;;;29.10
9119;BMP180;4594;50.994;7.126;2023-10-08T11:45:00;101624.00;;;29.10
9119;BMP180;4594;50.994;7.126;2023-10-08T11:47:45;101626.00;;;29.10
9119;BMP180;4594;50.994;7.126;2023-10-08T11:50:12;101613.00;;;29.20
9119;BMP180;4594;50.994;7.126;2023-10-08T11:52:43;101618.00;;;29.20
9119;BMP180;4594;50.994;7.126;2023-10-08T11:55:09;101613.00;;;29.20
9119;BMP180;4594;50.994;7.126;2023-10-08T11:57:36;101616.00;;;29.10
9119;BMP180;4594;50.994;7.126;2023-10-08T12:00:02;101607.00;;;29.00
9119;BMP180;4594;50.994;7.126;2023-10-08T12:02:48;101616.00;;;28.90
9119;BMP180;4594;50.994;7.126;2023-10-08T12:05:14;101605.00;;;28.80
9119;BMP180;4594;50.994;7.126;2023-10-08T12:07:52;101600.00;;;28.70
9119;BMP180;4594;50.994;7.126;2023-10-08T12:10:19;101587.00;;;28.60
9119;BMP180;4594;50.994;7.126;2023-10-08T12:12:53;101604.00;;;28.50
9119;BMP180;4594;50.994;7.126;2023-10-08T12:15:21;101600.00;;;28.50
9119;BMP180;4594;50.994;7.126;2023-10-08T12:17:48;101603.00;;;28.40
9119;BMP180;4594;50.994;7.126;2023-10-08T12:20:35;101582.00;;;28.40
9119;BMP180;4594;50.994;7.126;2023-10-08T12:23:06;101592.00;;;28.30
9119;BMP180;4594;50.994;7.126;2023-10-08T12:25:36;101584.00;;;28.30
9119;BMP180;4594;50.994;7.126;2023-10-08T12:28:04;101577.00;;;28.20
9119;BMP180;4594;50.994;7.126;2023-10-08T12:30:33;101585.00;;;28.20
9119;BMP180;4594;50.994;7.126;2023-10-08T12:33:07;101585.00;;;28.20
9119;BMP180;4594;50.994;7.126;2023-10-08T12:35:39;101579.00;;;28.20
9119;BMP180;4594;50.994;7.126;2023-10-08T12:38:05;101586.00;;;28.20
9119;BMP180;4594;50.994;7.126;2023-10-08T12:40:31;101584.00;;;28.20
9119;BMP180;4594;50.994;7.126;2023-10-08T12:43:08;101589.00;;;28.20
9119;BMP180;4594;50.994;7.126;2023-10-08T12:45:34;101584.00;;;28.20
9119;BMP180;4594;50.994;7.126;2023-10-08T12:48:03;101585.00;;;28.10
9119;BMP180;4594;50.994;7.126;2023-10-08T12:50:30;101577.00;;;28.10
9119;BMP180;4594;50.994;7.126;2023-10-08T12:53:10;101556.00;;;28.10
9119;BMP180;4594;50.994;7.126;2023-10-08T12:55:40;101558.00;;;28.10
9119;BMP180;4594;50.994;7.126;2023-10-08T12:58:08;101566.00;;;28.10
9119;BMP180;4594;50.994;7.126;2023-10-08T13:00:40;101558.00;;;28.10
9119;BMP180;4594;50.994;7.126;2023-10-08T13:03:15;101538.00;;;28.00
9119;BMP180;4594;50.994;7.126;2023-10-08T13:05:43;101553.00;;;28.00
9119;BMP180;4594;50.994;7.126;2023-10-08T13:08:13;101530.00;;;27.90
9119;BMP180;4594;50.994;7.126;2023-10-08T13:10:39;101549.00;;;27.90
9119;BMP180;4594;50.994;7.126;2023-10-08T13:13:10;101559.00;;;27.80
9119;BMP180;4594;50.994;7.126;2023-10-08T13:15:37;101536.00;;;27.80
9119;BMP180;4594;50.994;7.126;2023-10-08T13:18:02;101537.00;;;27.80
9119;BMP180;4594;50.994;7.126;2023-10-08T13:20:31;101543.00;;;27.80
9119;BMP180;4594;50.994;7.126;2023-10-08T13:23:00;101544.00;;;27.80
9119;BMP180;4594;50.994;7.126;2023-10-08T13:25:26;101529.00;;;27.80
9119;BMP180;4594;50.994;7.126;2023-10-08T13:27:52;101531.00;;;27.80
9119;BMP180;4594;50.994;7.126;2023-10-08T13:30:18;101521.00;;;27.80
9119;BMP180;4594;50.994;7.126;2023-10-08T13:32:43;101519.00;;;27.80
9119;BMP180;4594;50.994;7.126;2023-10-08T13:35:11;101528.00;;;27.80
9119;BMP180;4594;50.994;7.126;2023-10-08T13:37:37;101527.00;;;27.80
9119;BMP180;4594;50.994;7.126;2023-10-08T13:40:03;101539.00;;;27.80
9119;BMP180;4594;50.994;7.126;2023-10-08T13:42:29;101534.00;;;27.80
9119;BMP180;4594;50.994;7.126;2023-10-08T13:44:55;101530.00;;;27.90
9119;BMP180;4594;50.994;7.126;2023-10-08T13:47:25;101530.00;;;27.90
9119;BMP180;4594;50.994;7.126;2023-10-08T13:49:52;101520.00;;;27.90
9119;BMP180;4594;50.994;7.126;2023-10-08T13:52:21;101520.00;;;27.90
9119;BMP180;4594;50.994;7.126;2023-10-08T13:54:52;101521.00;;;27.80
9119;BMP180;4594;50.994;7.126;2023-10-08T13:57:22;101514.00;;;27.80
9119;BMP180;4594;50.994;7.126;2023-10-08T13:59:50;101510.00;;;27.80
9119;BMP180;4594;50.994;7.126;2023-10-08T14:02:16;101494.00;;;27.70
9119;BMP180;4594;50.994;7.126;2023-10-08T14:04:45;101495.00;;;27.70
9119;BMP180;4594;50.994;7.126;2023-10-08T14:07:12;101494.00;;;27.70
9119;BMP180;4594;50.994;7.126;2023-10-08T14:09:45;101494.00;;;27.70
9119;BMP180;4594;50.994;7.126;2023-10-08T14:12:12;101492.00;;;27.70
9119;BMP180;4594;50.994;7.126;2023-10-08T14:14:40;101490.00;;;27.70
9119;BMP180;4594;50.994;7.126;2023-10-08T14:17:10;101484.00;;;27.60
9119;BMP180;4594;50.994;7.126;2023-10-08T14:19:41;101484.00;;;27.60
9119;BMP180;4594;50.994;7.126;2023-10-08T14:22:18;101480.00;;;27.60
9119;BMP180;4594;50.994;7.126;2023-10-08T14:24:47;101487.00;;;27.60
9119;BMP180;4594;50.994;7.126;2023-10-08T14:27:27;101476.00;;;27.60
9119;BMP180;4594;50.994;7.126;2023-10-08T14:29:58;101478.00;;;27.60
9119;BMP180;4594;50.994;7.126;2023-10-08T14:32:27;101474.00;;;27.60
9119;BMP180;4594;50.994;7.126;2023-10-08T14:34:54;101458.00;;;27.60
9119;BMP180;4594;50.994;7.126;2023-10-08T14:37:20;101473.00;;;27.60
9119;BMP180;4594;50.994;7.126;2023-10-08T14:40:05;101458.00;;;27.60
9119;BMP180;4594;50.994;7.126;2023-10-08T14:42:50;101473.00;;;27.50
9119;BMP180;4594;50.994;7.126;2023-10-08T14:45:34;101475.00;;;27.50
9119;BMP180;4594;50.994;7.126;2023-10-08T14:48:05;101440.00;;;27.50
9119;BMP180;4594;50.994;7.126;2023-10-08T14:50:36;101448.00;;;27.40